Virgilina, VA (24598)

23:42 EDT le 26 mai 2015 (GMT -0400)
Oak Hill | | Change Station
CLOSE
Current Station
Stations météorologiques personnelles
Location: Oxford, NC
Altitude: 499 ft
Stations météo à proximité

Alt. 499 ft 36.44 °N, 78.73 °W | Updated 3 minutes ago

Ciel dégagé
Ciel dégagé
74.3 ° F
Paraît 75 ° F
N
0.0
Vent Variable Vent de OSO

Aujourd'hui
Haut(e) -- | Bas -- ° F
--% Risque de précip.
Hier
Haut(e) -- | Bas -- ° F
Precip. -- pouce
6:00 AM 8:23 PM
Lune gibbeuse croissante, 63% visible
Pression 30.24 pouce
Visibilité 10.0 Miles terrestres
Nuages Nuages épars 1800 ft
indice de chaleur 75 ° F
Point de rosée 67 ° F
Humidité 78%
Précipitations 0.00 pouce
Profondeur de la couche neigeuse Non disponible.
UV 0 sur 12
Pollen 7.20 sur 12
Qualité de l'air Non disponible.
Flu Activity No Activity
METAR KHNZ 270335Z AUTO 18007G15KT 10SM SCT018 23/19 A3024 RMK AO2 T02330192

More Conditions Fewer Conditions

Pression 30.24 pouce
Visibilité 10.0 Miles terrestres
Nuages Nuages épars 1800 ft
indice de chaleur 75 ° F
Point de rosée 67 ° F
Humidité 78%
Précipitations 0.00 pouce
Profondeur de la couche neigeuse Non disponible.
UV 0 sur 12
Pollen 7.20 sur 12
Qualité de l'air Non disponible.
Flu Activity No Activity
METAR KHNZ 270335Z AUTO 18007G15KT 10SM SCT018 23/19 A3024 RMK AO2 T02330192

More Conditions Fewer Conditions

10-Day Weather Forecast

Almanac

Astronomie

May. 26, 2015 Lever Coucher
Temps réel
Crépuscule civil
Crépuscule nautique
Crépuscule astronomique
Lune
Durée de lumière visible
Longueur du jour
Tomorrow will be .
, % of the Moon is Illuminated

Extrêmes aujourd'hui

State Highs State Lows

Community

WunderPhotos

Upload Photos

1,824,600 Photos téléchargées !

WunderBlogs® & News

Nearby

Qualité de l'air

  Qualité de l'air Indice de la qualité de l'air Polluant
Not available.

Épaisseur de neige

Station Depth Altitude

Activité sismique

Ville Distance Mag. Time & Date
Minimum magnitude displayed is 2.5.

Températures des eaux côtières

Lieu Température

Stations

Stations météo à proximité

Emplacement de la station Température Refroidissement éolien Point de rosée Humidité Vent Precip. Alt. Mise à jour Type